sensor_id;sensor_type;location;lat;lon;timestamp;temperature;humidity
22852;DHT22;11592;45.460;9.240;2023-06-05T00:01:54;19.30;99.90
22852;DHT22;11592;45.460;9.240;2023-06-05T00:04:21;19.30;99.90
22852;DHT22;11592;45.460;9.240;2023-06-05T00:06:50;19.40;99.90
22852;DHT22;11592;45.460;9.240;2023-06-05T00:09:19;19.40;99.90
22852;DHT22;11592;45.460;9.240;2023-06-05T00:11:46;19.20;99.90
22852;DHT22;11592;45.460;9.240;2023-06-05T00:14:13;19.20;99.90
22852;DHT22;11592;45.460;9.240;2023-06-05T00:16:41;19.20;99.90
22852;DHT22;11592;45.460;9.240;2023-06-05T00:19:08;19.10;99.90
22852;DHT22;11592;45.460;9.240;2023-06-05T00:21:35;19.00;99.90
22852;DHT22;11592;45.460;9.240;2023-06-05T00:24:03;19.10;99.90
22852;DHT22;11592;45.460;9.240;2023-06-05T00:26:30;19.10;99.90
22852;DHT22;11592;45.460;9.240;2023-06-05T00:28:57;19.10;99.90
22852;DHT22;11592;45.460;9.240;2023-06-05T00:31:23;19.00;99.90
22852;DHT22;11592;45.460;9.240;2023-06-05T00:33:50;18.90;99.90
22852;DHT22;11592;45.460;9.240;2023-06-05T00:36:18;18.90;99.90
22852;DHT22;11592;45.460;9.240;2023-06-05T00:38:50;19.00;99.90
22852;DHT22;11592;45.460;9.240;2023-06-05T00:41:17;19.00;99.90
22852;DHT22;11592;45.460;9.240;2023-06-05T00:43:44;19.00;99.90
22852;DHT22;11592;45.460;9.240;2023-06-05T00:46:11;18.90;99.90
22852;DHT22;11592;45.460;9.240;2023-06-05T00:48:40;18.80;99.90
22852;DHT22;11592;45.460;9.240;2023-06-05T00:51:07;18.80;99.90
22852;DHT22;11592;45.460;9.240;2023-06-05T00:53:38;18.80;99.90
22852;DHT22;11592;45.460;9.240;2023-06-05T00:56:05;18.90;99.90
22852;DHT22;11592;45.460;9.240;2023-06-05T00:58:32;18.80;99.90
22852;DHT22;11592;45.460;9.240;2023-06-05T01:01:00;18.90;99.90
22852;DHT22;11592;45.460;9.240;2023-06-05T01:03:30;19.00;99.90
22852;DHT22;11592;45.460;9.240;2023-06-05T01:06:00;19.20;99.90
22852;DHT22;11592;45.460;9.240;2023-06-05T01:08:34;19.10;99.90
22852;DHT22;11592;45.460;9.240;2023-06-05T01:14:21;19.20;99.90
22852;DHT22;11592;45.460;9.240;2023-06-05T01:16:56;19.20;99.90
22852;DHT22;11592;45.460;9.240;2023-06-05T01:19:24;19.10;99.90
22852;DHT22;11592;45.460;9.240;2023-06-05T01:21:55;19.20;99.90
22852;DHT22;11592;45.460;9.240;2023-06-05T01:24:22;19.20;99.90
22852;DHT22;11592;45.460;9.240;2023-06-05T01:29:35;19.20;99.90
22852;DHT22;11592;45.460;9.240;2023-06-05T01:32:16;19.10;99.90
22852;DHT22;11592;45.460;9.240;2023-06-05T01:34:46;19.20;99.90
22852;DHT22;11592;45.460;9.240;2023-06-05T01:37:16;19.30;99.90
22852;DHT22;11592;45.460;9.240;2023-06-05T01:39:47;19.10;99.90
22852;DHT22;11592;45.460;9.240;2023-06-05T01:42:15;19.00;99.90
22852;DHT22;11592;45.460;9.240;2023-06-05T01:44:42;18.90;99.90
22852;DHT22;11592;45.460;9.240;2023-06-05T01:47:10;18.90;99.90
22852;DHT22;11592;45.460;9.240;2023-06-05T01:49:37;18.90;99.90
22852;DHT22;11592;45.460;9.240;2023-06-05T01:52:04;18.80;99.90
22852;DHT22;11592;45.460;9.240;2023-06-05T01:54:32;18.90;99.90
22852;DHT22;11592;45.460;9.240;2023-06-05T01:57:00;18.90;99.90
22852;DHT22;11592;45.460;9.240;2023-06-05T01:59:27;18.90;99.90
22852;DHT22;11592;45.460;9.240;2023-06-05T02:01:54;19.00;99.90
22852;DHT22;11592;45.460;9.240;2023-06-05T02:04:21;19.00;99.90
22852;DHT22;11592;45.460;9.240;2023-06-05T02:06:48;19.10;99.90
22852;DHT22;11592;45.460;9.240;2023-06-05T02:09:15;19.10;99.90
22852;DHT22;11592;45.460;9.240;2023-06-05T02:11:42;19.10;99.90
22852;DHT22;11592;45.460;9.240;2023-06-05T02:14:09;19.00;99.90
22852;DHT22;11592;45.460;9.240;2023-06-05T02:16:40;19.00;99.90
22852;DHT22;11592;45.460;9.240;2023-06-05T02:19:07;19.10;99.90
22852;DHT22;11592;45.460;9.240;2023-06-05T02:21:35;19.10;99.90
22852;DHT22;11592;45.460;9.240;2023-06-05T02:24:02;19.00;99.90
22852;DHT22;11592;45.460;9.240;2023-06-05T02:26:30;19.00;99.90
22852;DHT22;11592;45.460;9.240;2023-06-05T02:28:58;19.10;99.90
22852;DHT22;11592;45.460;9.240;2023-06-05T02:31:25;19.10;99.90
22852;DHT22;11592;45.460;9.240;2023-06-05T02:33:53;19.10;99.90
22852;DHT22;11592;45.460;9.240;2023-06-05T02:36:24;19.10;99.90
22852;DHT22;11592;45.460;9.240;2023-06-05T02:38:51;19.00;99.90
22852;DHT22;11592;45.460;9.240;2023-06-05T02:41:19;19.00;99.90
22852;DHT22;11592;45.460;9.240;2023-06-05T02:43:46;19.10;99.90
22852;DHT22;11592;45.460;9.240;2023-06-05T02:46:13;19.00;99.90
22852;DHT22;11592;45.460;9.240;2023-06-05T02:48:39;19.10;99.90
22852;DHT22;11592;45.460;9.240;2023-06-05T02:51:06;18.90;99.90
22852;DHT22;11592;45.460;9.240;2023-06-05T02:53:34;18.90;99.90
22852;DHT22;11592;45.460;9.240;2023-06-05T02:56:01;18.90;99.90
22852;DHT22;11592;45.460;9.240;2023-06-05T02:58:28;18.80;99.90
22852;DHT22;11592;45.460;9.240;2023-06-05T03:00:55;18.90;99.90
22852;DHT22;11592;45.460;9.240;2023-06-05T03:03:32;19.00;99.90
22852;DHT22;11592;45.460;9.240;2023-06-05T03:06:00;19.10;99.90
22852;DHT22;11592;45.460;9.240;2023-06-05T03:08:36;19.10;99.90
22852;DHT22;11592;45.460;9.240;2023-06-05T03:11:04;19.10;99.90
22852;DHT22;11592;45.460;9.240;2023-06-05T03:13:32;19.20;99.90
22852;DHT22;11592;45.460;9.240;2023-06-05T03:16:01;19.20;99.90
22852;DHT22;11592;45.460;9.240;2023-06-05T03:18:29;19.20;99.90
22852;DHT22;11592;45.460;9.240;2023-06-05T03:20:56;19.10;99.90
22852;DHT22;11592;45.460;9.240;2023-06-05T03:23:24;19.10;99.90
22852;DHT22;11592;45.460;9.240;2023-06-05T03:25:51;19.10;99.90
22852;DHT22;11592;45.460;9.240;2023-06-05T03:28:18;19.10;99.90
22852;DHT22;11592;45.460;9.240;2023-06-05T03:30:45;19.10;99.90
22852;DHT22;11592;45.460;9.240;2023-06-05T03:33:13;19.10;99.90
22852;DHT22;11592;45.460;9.240;2023-06-05T03:35:41;19.10;99.90
22852;DHT22;11592;45.460;9.240;2023-06-05T03:38:09;19.10;99.90
22852;DHT22;11592;45.460;9.240;2023-06-05T03:40:36;19.10;99.90
22852;DHT22;11592;45.460;9.240;2023-06-05T03:43:06;19.20;99.90
22852;DHT22;11592;45.460;9.240;2023-06-05T03:45:37;19.20;99.90
22852;DHT22;11592;45.460;9.240;2023-06-05T03:48:05;19.20;99.90
22852;DHT22;11592;45.460;9.240;2023-06-05T03:50:32;19.20;99.90
22852;DHT22;11592;45.460;9.240;2023-06-05T03:53:04;19.20;99.90
22852;DHT22;11592;45.460;9.240;2023-06-05T03:55:32;19.20;99.90
22852;DHT22;11592;45.460;9.240;2023-06-05T03:58:09;19.10;99.90
22852;DHT22;11592;45.460;9.240;2023-06-05T04:00:36;19.10;99.90
22852;DHT22;11592;45.460;9.240;2023-06-05T04:03:03;19.20;99.90
22852;DHT22;11592;45.460;9.240;2023-06-05T04:05:31;19.20;99.90
22852;DHT22;11592;45.460;9.240;2023-06-05T04:07:57;19.10;99.90
22852;DHT22;11592;45.460;9.240;2023-06-05T04:10:24;19.20;99.90
22852;DHT22;11592;45.460;9.240;2023-06-05T04:12:51;19.20;99.90
22852;DHT22;11592;45.460;9.240;2023-06-05T04:15:18;19.20;99.90
22852;DHT22;11592;45.460;9.240;2023-06-05T04:17:45;19.20;99.90
22852;DHT22;11592;45.460;9.240;2023-06-05T04:20:12;19.20;99.90
22852;DHT22;11592;45.460;9.240;2023-06-05T04:22:42;19.30;99.90
22852;DHT22;11592;45.460;9.240;2023-06-05T04:25:10;19.30;99.90
22852;DHT22;11592;45.460;9.240;2023-06-05T04:27:41;19.30;99.90
22852;DHT22;11592;45.460;9.240;2023-06-05T04:30:10;19.30;99.90
22852;DHT22;11592;45.460;9.240;2023-06-05T04:32:38;19.30;99.90
22852;DHT22;11592;45.460;9.240;2023-06-05T04:35:06;19.40;99.90
22852;DHT22;11592;45.460;9.240;2023-06-05T04:37:33;19.50;99.90
22852;DHT22;11592;45.460;9.240;2023-06-05T04:40:01;19.40;99.90
22852;DHT22;11592;45.460;9.240;2023-06-05T04:42:32;19.50;99.90
22852;DHT22;11592;45.460;9.240;2023-06-05T04:45:04;19.60;99.90
22852;DHT22;11592;45.460;9.240;2023-06-05T04:47:31;19.60;99.90
22852;DHT22;11592;45.460;9.240;2023-06-05T04:49:59;19.60;99.90
22852;DHT22;11592;45.460;9.240;2023-06-05T04:52:26;19.60;99.90
22852;DHT22;11592;45.460;9.240;2023-06-05T04:54:55;19.60;99.90
22852;DHT22;11592;45.460;9.240;2023-06-05T04:57:25;19.70;99.90
22852;DHT22;11592;45.460;9.240;2023-06-05T04:59:52;19.70;99.90
22852;DHT22;11592;45.460;9.240;2023-06-05T05:02:20;19.70;99.90
22852;DHT22;11592;45.460;9.240;2023-06-05T05:04:47;19.70;99.90
22852;DHT22;11592;45.460;9.240;2023-06-05T05:07:14;19.70;99.90
22852;DHT22;11592;45.460;9.240;2023-06-05T05:09:43;19.70;99.90
22852;DHT22;11592;45.460;9.240;2023-06-05T05:12:10;19.70;99.90
22852;DHT22;11592;45.460;9.240;2023-06-05T05:14:38;19.70;99.90
22852;DHT22;11592;45.460;9.240;2023-06-05T05:17:06;19.70;99.90
22852;DHT22;11592;45.460;9.240;2023-06-05T05:19:33;19.80;99.90
22852;DHT22;11592;45.460;9.240;2023-06-05T05:22:00;19.80;99.90
22852;DHT22;11592;45.460;9.240;2023-06-05T05:24:27;19.80;99.90
22852;DHT22;11592;45.460;9.240;2023-06-05T05:26:54;19.80;99.90
22852;DHT22;11592;45.460;9.240;2023-06-05T05:29:21;19.90;99.90
22852;DHT22;11592;45.460;9.240;2023-06-05T05:31:48;19.80;99.90
22852;DHT22;11592;45.460;9.240;2023-06-05T05:34:15;19.80;99.90
22852;DHT22;11592;45.460;9.240;2023-06-05T05:36:42;19.80;99.90
22852;DHT22;11592;45.460;9.240;2023-06-05T05:39:09;19.70;99.90
22852;DHT22;11592;45.460;9.240;2023-06-05T05:41:36;19.80;99.90
22852;DHT22;11592;45.460;9.240;2023-06-05T05:44:03;19.80;99.90
22852;DHT22;11592;45.460;9.240;2023-06-05T05:46:30;19.80;99.90
22852;DHT22;11592;45.460;9.240;2023-06-05T05:48:57;19.80;99.90
22852;DHT22;11592;45.460;9.240;2023-06-05T05:51:23;19.70;99.90
22852;DHT22;11592;45.460;9.240;2023-06-05T05:53:50;19.80;99.90
22852;DHT22;11592;45.460;9.240;2023-06-05T05:56:19;19.90;99.90
22852;DHT22;11592;45.460;9.240;2023-06-05T05:58:46;20.00;99.90
22852;DHT22;11592;45.460;9.240;2023-06-05T06:01:13;20.00;99.90
22852;DHT22;11592;45.460;9.240;2023-06-05T06:03:40;20.00;99.90
22852;DHT22;11592;45.460;9.240;2023-06-05T06:06:07;19.90;99.90
22852;DHT22;11592;45.460;9.240;2023-06-05T06:08:34;19.90;99.90
22852;DHT22;11592;45.460;9.240;2023-06-05T06:11:02;19.80;99.90
22852;DHT22;11592;45.460;9.240;2023-06-05T06:13:33;19.70;99.90
22852;DHT22;11592;45.460;9.240;2023-06-05T06:16:02;19.70;99.90
22852;DHT22;11592;45.460;9.240;2023-06-05T06:18:29;19.70;99.90
22852;DHT22;11592;45.460;9.240;2023-06-05T06:20:57;19.80;99.90
22852;DHT22;11592;45.460;9.240;2023-06-05T06:23:24;19.70;99.90
22852;DHT22;11592;45.460;9.240;2023-06-05T06:25:51;19.70;99.90
22852;DHT22;11592;45.460;9.240;2023-06-05T06:28:18;19.70;99.90
22852;DHT22;11592;45.460;9.240;2023-06-05T06:30:46;19.80;99.90
22852;DHT22;11592;45.460;9.240;2023-06-05T06:33:13;19.90;99.90
22852;DHT22;11592;45.460;9.240;2023-06-05T06:35:40;20.00;99.90
22852;DHT22;11592;45.460;9.240;2023-06-05T06:38:07;19.90;99.90
22852;DHT22;11592;45.460;9.240;2023-06-05T06:40:34;19.90;99.90
22852;DHT22;11592;45.460;9.240;2023-06-05T06:43:00;20.00;99.90
22852;DHT22;11592;45.460;9.240;2023-06-05T06:45:27;20.00;99.90
22852;DHT22;11592;45.460;9.240;2023-06-05T06:47:54;20.00;99.90
22852;DHT22;11592;45.460;9.240;2023-06-05T06:50:33;20.10;99.90
22852;DHT22;11592;45.460;9.240;2023-06-05T06:53:00;20.10;99.90
22852;DHT22;11592;45.460;9.240;2023-06-05T06:55:28;20.10;99.90
22852;DHT22;11592;45.460;9.240;2023-06-05T06:57:54;20.20;99.90
22852;DHT22;11592;45.460;9.240;2023-06-05T07:00:21;20.10;99.90
22852;DHT22;11592;45.460;9.240;2023-06-05T07:02:49;20.20;99.90
22852;DHT22;11592;45.460;9.240;2023-06-05T07:05:17;20.30;99.90
22852;DHT22;11592;45.460;9.240;2023-06-05T07:07:46;20.30;99.90
22852;DHT22;11592;45.460;9.240;2023-06-05T07:10:13;20.40;99.90
22852;DHT22;11592;45.460;9.240;2023-06-05T07:12:40;20.30;99.90
22852;DHT22;11592;45.460;9.240;2023-06-05T07:15:07;20.30;99.90
22852;DHT22;11592;45.460;9.240;2023-06-05T07:17:34;20.30;99.90
22852;DHT22;11592;45.460;9.240;2023-06-05T07:20:01;20.30;99.90
22852;DHT22;11592;45.460;9.240;2023-06-05T07:22:29;20.40;99.90
22852;DHT22;11592;45.460;9.240;2023-06-05T07:24:57;20.50;99.90
22852;DHT22;11592;45.460;9.240;2023-06-05T07:27:23;20.40;99.90
22852;DHT22;11592;45.460;9.240;2023-06-05T07:29:50;20.50;99.90
22852;DHT22;11592;45.460;9.240;2023-06-05T07:32:19;20.50;99.90
22852;DHT22;11592;45.460;9.240;2023-06-05T07:34:47;20.60;99.90
22852;DHT22;11592;45.460;9.240;2023-06-05T07:37:15;20.60;99.90
22852;DHT22;11592;45.460;9.240;2023-06-05T07:39:42;20.50;99.90
22852;DHT22;11592;45.460;9.240;2023-06-05T07:42:09;20.50;99.90
22852;DHT22;11592;45.460;9.240;2023-06-05T07:44:36;20.50;99.90
22852;DHT22;11592;45.460;9.240;2023-06-05T07:47:03;20.40;99.90
22852;DHT22;11592;45.460;9.240;2023-06-05T07:49:30;20.50;99.90
22852;DHT22;11592;45.460;9.240;2023-06-05T07:52:00;20.50;99.90
22852;DHT22;11592;45.460;9.240;2023-06-05T07:54:27;20.50;99.90
22852;DHT22;11592;45.460;9.240;2023-06-05T07:56:54;20.60;99.90
22852;DHT22;11592;45.460;9.240;2023-06-05T07:59:23;20.70;99.90
22852;DHT22;11592;45.460;9.240;2023-06-05T08:01:55;20.70;99.90
22852;DHT22;11592;45.460;9.240;2023-06-05T08:04:27;20.80;99.90
22852;DHT22;11592;45.460;9.240;2023-06-05T08:06:55;20.80;99.90
22852;DHT22;11592;45.460;9.240;2023-06-05T08:09:22;20.90;99.90
22852;DHT22;11592;45.460;9.240;2023-06-05T08:11:49;21.00;99.90
22852;DHT22;11592;45.460;9.240;2023-06-05T08:14:16;21.10;99.90
22852;DHT22;11592;45.460;9.240;2023-06-05T08:16:43;21.10;99.90
22852;DHT22;11592;45.460;9.240;2023-06-05T08:19:10;21.00;99.90
22852;DHT22;11592;45.460;9.240;2023-06-05T08:21:37;21.10;99.90
22852;DHT22;11592;45.460;9.240;2023-06-05T08:24:04;21.00;99.90
22852;DHT22;11592;45.460;9.240;2023-06-05T08:26:31;21.10;99.90
22852;DHT22;11592;45.460;9.240;2023-06-05T08:28:59;21.10;99.90
22852;DHT22;11592;45.460;9.240;2023-06-05T08:31:26;21.10;99.90
22852;DHT22;11592;45.460;9.240;2023-06-05T08:33:53;21.30;99.90
22852;DHT22;11592;45.460;9.240;2023-06-05T08:36:20;21.30;99.90
22852;DHT22;11592;45.460;9.240;2023-06-05T08:38:47;21.40;99.90
22852;DHT22;11592;45.460;9.240;2023-06-05T08:41:14;21.50;99.90
22852;DHT22;11592;45.460;9.240;2023-06-05T08:43:43;21.50;99.90
22852;DHT22;11592;45.460;9.240;2023-06-05T08:46:12;21.70;99.90
22852;DHT22;11592;45.460;9.240;2023-06-05T08:48:44;21.80;99.90
22852;DHT22;11592;45.460;9.240;2023-06-05T08:51:16;21.80;99.90
22852;DHT22;11592;45.460;9.240;2023-06-05T08:53:51;21.90;99.90
22852;DHT22;11592;45.460;9.240;2023-06-05T08:56:18;21.80;99.90
22852;DHT22;11592;45.460;9.240;2023-06-05T08:58:46;21.90;99.90
22852;DHT22;11592;45.460;9.240;2023-06-05T09:01:14;22.00;99.90
22852;DHT22;11592;45.460;9.240;2023-06-05T09:03:42;22.10;99.90
22852;DHT22;11592;45.460;9.240;2023-06-05T09:06:12;22.20;99.90
22852;DHT22;11592;45.460;9.240;2023-06-05T09:08:39;22.40;99.90
22852;DHT22;11592;45.460;9.240;2023-06-05T09:11:24;22.70;99.90
22852;DHT22;11592;45.460;9.240;2023-06-05T09:13:53;22.80;99.90
22852;DHT22;11592;45.460;9.240;2023-06-05T09:16:22;22.80;99.90
22852;DHT22;11592;45.460;9.240;2023-06-05T09:18:56;23.20;99.90
22852;DHT22;11592;45.460;9.240;2023-06-05T09:21:25;23.30;99.90
22852;DHT22;11592;45.460;9.240;2023-06-05T09:24:14;23.70;99.90
22852;DHT22;11592;45.460;9.240;2023-06-05T09:27:00;23.90;99.90
22852;DHT22;11592;45.460;9.240;2023-06-05T09:29:31;23.90;99.90
22852;DHT22;11592;45.460;9.240;2023-06-05T09:34:37;23.80;99.90
22852;DHT22;11592;45.460;9.240;2023-06-05T09:37:09;23.90;99.90
22852;DHT22;11592;45.460;9.240;2023-06-05T09:39:39;24.00;99.90
22852;DHT22;11592;45.460;9.240;2023-06-05T09:42:06;24.00;99.90
22852;DHT22;11592;45.460;9.240;2023-06-05T09:44:35;24.00;99.90
22852;DHT22;11592;45.460;9.240;2023-06-05T09:47:11;24.00;99.90
22852;DHT22;11592;45.460;9.240;2023-06-05T09:52:10;24.40;99.90
22852;DHT22;11592;45.460;9.240;2023-06-05T09:54:38;24.30;99.90
22852;DHT22;11592;45.460;9.240;2023-06-05T09:57:07;24.20;99.90
22852;DHT22;11592;45.460;9.240;2023-06-05T09:59:50;24.20;99.90
22852;DHT22;11592;45.460;9.240;2023-06-05T10:02:20;24.20;99.90
22852;DHT22;11592;45.460;9.240;2023-06-05T10:04:50;24.20;99.90
22852;DHT22;11592;45.460;9.240;2023-06-05T10:07:19;24.10;99.90
22852;DHT22;11592;45.460;9.240;2023-06-05T10:09:49;24.10;99.90
22852;DHT22;11592;45.460;9.240;2023-06-05T10:12:17;24.00;99.90
22852;DHT22;11592;45.460;9.240;2023-06-05T10:14:45;24.10;99.90
22852;DHT22;11592;45.460;9.240;2023-06-05T10:17:12;24.50;99.90
22852;DHT22;11592;45.460;9.240;2023-06-05T10:19:43;25.00;99.90
22852;DHT22;11592;45.460;9.240;2023-06-05T10:22:11;25.40;99.90
22852;DHT22;11592;45.460;9.240;2023-06-05T10:25:00;25.80;99.90
22852;DHT22;11592;45.460;9.240;2023-06-05T10:39:10;25.50;99.90
22852;DHT22;11592;45.460;9.240;2023-06-05T10:41:38;25.40;99.90
22852;DHT22;11592;45.460;9.240;2023-06-05T10:44:05;25.30;99.90
22852;DHT22;11592;45.460;9.240;2023-06-05T10:46:34;25.40;99.90
22852;DHT22;11592;45.460;9.240;2023-06-05T10:51:47;25.30;99.90
22852;DHT22;11592;45.460;9.240;2023-06-05T10:57:05;25.50;99.90
22852;DHT22;11592;45.460;9.240;2023-06-05T10:59:36;25.50;99.90
22852;DHT22;11592;45.460;9.240;2023-06-05T11:07:22;25.50;99.90
22852;DHT22;11592;45.460;9.240;2023-06-05T11:15:02;25.40;99.90
22852;DHT22;11592;45.460;9.240;2023-06-05T11:17:31;25.60;99.90
22852;DHT22;11592;45.460;9.240;2023-06-05T11:19:59;25.90;99.90
22852;DHT22;11592;45.460;9.240;2023-06-05T11:22:27;26.00;99.90
22852;DHT22;11592;45.460;9.240;2023-06-05T11:28:02;26.10;99.90
22852;DHT22;11592;45.460;9.240;2023-06-05T11:30:32;26.10;99.90
22852;DHT22;11592;45.460;9.240;2023-06-05T11:33:14;26.30;99.90
22852;DHT22;11592;45.460;9.240;2023-06-05T11:35:44;26.80;99.90
22852;DHT22;11592;45.460;9.240;2023-06-05T11:38:17;27.00;99.90
22852;DHT22;11592;45.460;9.240;2023-06-05T11:40:48;26.80;99.90
22852;DHT22;11592;45.460;9.240;2023-06-05T11:43:15;26.30;99.90
22852;DHT22;11592;45.460;9.240;2023-06-05T11:45:50;26.50;99.90
22852;DHT22;11592;45.460;9.240;2023-06-05T11:48:17;26.40;99.90
22852;DHT22;11592;45.460;9.240;2023-06-05T11:50:59;26.30;99.90
22852;DHT22;11592;45.460;9.240;2023-06-05T11:53:27;26.40;99.90
22852;DHT22;11592;45.460;9.240;2023-06-05T11:55:55;26.50;99.90
22852;DHT22;11592;45.460;9.240;2023-06-05T11:58:37;26.70;99.90
22852;DHT22;11592;45.460;9.240;2023-06-05T12:01:08;27.40;99.90
22852;DHT22;11592;45.460;9.240;2023-06-05T12:03:45;27.50;99.90
22852;DHT22;11592;45.460;9.240;2023-06-05T12:06:15;27.40;99.90
22852;DHT22;11592;45.460;9.240;2023-06-05T12:08:43;27.20;99.90
22852;DHT22;11592;45.460;9.240;2023-06-05T12:11:27;27.10;99.90
22852;DHT22;11592;45.460;9.240;2023-06-05T12:13:57;27.30;99.90
22852;DHT22;11592;45.460;9.240;2023-06-05T12:16:35;27.50;99.90
22852;DHT22;11592;45.460;9.240;2023-06-05T12:19:13;27.50;99.90
22852;DHT22;11592;45.460;9.240;2023-06-05T12:21:43;27.60;99.90
22852;DHT22;11592;45.460;9.240;2023-06-05T12:24:10;27.60;99.90
22852;DHT22;11592;45.460;9.240;2023-06-05T12:27:14;27.60;99.90
22852;DHT22;11592;45.460;9.240;2023-06-05T12:29:53;27.70;99.90
22852;DHT22;11592;45.460;9.240;2023-06-05T12:32:24;27.70;99.90
22852;DHT22;11592;45.460;9.240;2023-06-05T12:34:52;27.80;99.90
22852;DHT22;11592;45.460;9.240;2023-06-05T12:37:28;27.90;99.90
22852;DHT22;11592;45.460;9.240;2023-06-05T12:40:00;28.00;99.90
22852;DHT22;11592;45.460;9.240;2023-06-05T12:42:27;28.10;99.90
22852;DHT22;11592;45.460;9.240;2023-06-05T12:44:54;28.10;99.90
22852;DHT22;11592;45.460;9.240;2023-06-05T12:47:21;27.90;99.90
22852;DHT22;11592;45.460;9.240;2023-06-05T12:49:49;28.20;99.90
22852;DHT22;11592;45.460;9.240;2023-06-05T12:52:16;28.60;99.90
22852;DHT22;11592;45.460;9.240;2023-06-05T12:54:43;28.80;99.90
22852;DHT22;11592;45.460;9.240;2023-06-05T12:57:10;29.10;99.90
22852;DHT22;11592;45.460;9.240;2023-06-05T12:59:39;29.10;99.90
22852;DHT22;11592;45.460;9.240;2023-06-05T13:02:06;29.10;99.90
22852;DHT22;11592;45.460;9.240;2023-06-05T13:04:34;29.20;99.90
22852;DHT22;11592;45.460;9.240;2023-06-05T13:07:02;29.20;99.90
22852;DHT22;11592;45.460;9.240;2023-06-05T13:09:30;29.30;99.90
22852;DHT22;11592;45.460;9.240;2023-06-05T13:11:57;29.20;99.90
22852;DHT22;11592;45.460;9.240;2023-06-05T13:14:26;29.10;99.90
22852;DHT22;11592;45.460;9.240;2023-06-05T13:16:53;28.90;99.90
22852;DHT22;11592;45.460;9.240;2023-06-05T13:19:21;28.60;99.90
22852;DHT22;11592;45.460;9.240;2023-06-05T13:21:48;28.10;99.90
22852;DHT22;11592;45.460;9.240;2023-06-05T13:24:15;27.90;99.90
22852;DHT22;11592;45.460;9.240;2023-06-05T13:26:42;27.50;99.90
22852;DHT22;11592;45.460;9.240;2023-06-05T13:29:10;27.20;99.90
22852;DHT22;11592;45.460;9.240;2023-06-05T13:31:37;26.90;99.90
22852;DHT22;11592;45.460;9.240;2023-06-05T13:34:04;26.60;99.90
22852;DHT22;11592;45.460;9.240;2023-06-05T13:36:32;26.50;99.90
22852;DHT22;11592;45.460;9.240;2023-06-05T13:39:00;26.30;99.90
22852;DHT22;11592;45.460;9.240;2023-06-05T13:41:27;26.00;99.90
22852;DHT22;11592;45.460;9.240;2023-06-05T13:43:54;25.90;99.90
22852;DHT22;11592;45.460;9.240;2023-06-05T13:46:24;25.70;99.90
22852;DHT22;11592;45.460;9.240;2023-06-05T13:48:53;25.50;99.90
22852;DHT22;11592;45.460;9.240;2023-06-05T13:51:20;25.40;99.90
22852;DHT22;11592;45.460;9.240;2023-06-05T13:53:47;25.30;99.90
22852;DHT22;11592;45.460;9.240;2023-06-05T13:56:13;25.10;99.90
22852;DHT22;11592;45.460;9.240;2023-06-05T13:58:40;24.90;99.90
22852;DHT22;11592;45.460;9.240;2023-06-05T14:01:07;24.80;99.90
22852;DHT22;11592;45.460;9.240;2023-06-05T14:03:34;24.70;99.90
22852;DHT22;11592;45.460;9.240;2023-06-05T14:06:01;24.50;99.90
22852;DHT22;11592;45.460;9.240;2023-06-05T14:08:28;24.50;99.90
22852;DHT22;11592;45.460;9.240;2023-06-05T14:10:55;24.50;99.90
22852;DHT22;11592;45.460;9.240;2023-06-05T14:13:22;24.50;99.90
22852;DHT22;11592;45.460;9.240;2023-06-05T14:15:49;24.60;99.90
22852;DHT22;11592;45.460;9.240;2023-06-05T14:18:16;24.60;99.90
22852;DHT22;11592;45.460;9.240;2023-06-05T14:20:43;24.70;99.90
22852;DHT22;11592;45.460;9.240;2023-06-05T14:23:09;24.80;99.90
22852;DHT22;11592;45.460;9.240;2023-06-05T14:25:37;25.00;99.90
22852;DHT22;11592;45.460;9.240;2023-06-05T14:28:04;25.00;99.90
22852;DHT22;11592;45.460;9.240;2023-06-05T14:30:33;25.20;99.90
22852;DHT22;11592;45.460;9.240;2023-06-05T14:32:59;25.10;99.90
22852;DHT22;11592;45.460;9.240;2023-06-05T14:35:26;25.30;99.90
22852;DHT22;11592;45.460;9.240;2023-06-05T14:37:54;25.70;99.90
22852;DHT22;11592;45.460;9.240;2023-06-05T14:40:21;26.00;99.90
22852;DHT22;11592;45.460;9.240;2023-06-05T14:42:49;26.00;99.90
22852;DHT22;11592;45.460;9.240;2023-06-05T14:45:16;26.00;99.90
22852;DHT22;11592;45.460;9.240;2023-06-05T14:47:43;26.00;99.90
22852;DHT22;11592;45.460;9.240;2023-06-05T14:50:11;25.90;99.90
22852;DHT22;11592;45.460;9.240;2023-06-05T14:52:38;25.80;99.90
22852;DHT22;11592;45.460;9.240;2023-06-05T14:55:05;26.30;99.90
22852;DHT22;11592;45.460;9.240;2023-06-05T14:57:32;26.90;99.90
22852;DHT22;11592;45.460;9.240;2023-06-05T15:00:01;27.30;99.90
22852;DHT22;11592;45.460;9.240;2023-06-05T15:02:31;27.70;99.90
22852;DHT22;11592;45.460;9.240;2023-06-05T15:04:58;27.80;99.90
22852;DHT22;11592;45.460;9.240;2023-06-05T15:07:38;27.70;99.90
22852;DHT22;11592;45.460;9.240;2023-06-05T15:10:05;27.60;99.90
22852;DHT22;11592;45.460;9.240;2023-06-05T15:12:35;27.40;99.90
22852;DHT22;11592;45.460;9.240;2023-06-05T15:15:02;27.30;99.90
22852;DHT22;11592;45.460;9.240;2023-06-05T15:17:45;27.10;99.90
22852;DHT22;11592;45.460;9.240;2023-06-05T15:20:12;27.00;99.90
22852;DHT22;11592;45.460;9.240;2023-06-05T15:22:39;26.80;99.90
22852;DHT22;11592;45.460;9.240;2023-06-05T15:25:06;26.80;99.90
22852;DHT22;11592;45.460;9.240;2023-06-05T15:27:33;26.70;99.90
22852;DHT22;11592;45.460;9.240;2023-06-05T15:30:01;26.50;99.90
22852;DHT22;11592;45.460;9.240;2023-06-05T15:32:28;26.20;99.90
22852;DHT22;11592;45.460;9.240;2023-06-05T15:34:55;26.20;99.90
22852;DHT22;11592;45.460;9.240;2023-06-05T15:37:25;26.30;99.90
22852;DHT22;11592;45.460;9.240;2023-06-05T15:39:52;26.50;99.90
22852;DHT22;11592;45.460;9.240;2023-06-05T15:42:28;26.30;99.90
22852;DHT22;11592;45.460;9.240;2023-06-05T15:45:12;26.70;99.90
22852;DHT22;11592;45.460;9.240;2023-06-05T15:47:39;27.00;99.90
22852;DHT22;11592;45.460;9.240;2023-06-05T15:50:08;27.20;99.90
22852;DHT22;11592;45.460;9.240;2023-06-05T15:52:36;27.50;99.90
22852;DHT22;11592;45.460;9.240;2023-06-05T15:55:03;27.90;99.90
22852;DHT22;11592;45.460;9.240;2023-06-05T15:57:30;28.00;99.90
22852;DHT22;11592;45.460;9.240;2023-06-05T15:59:57;28.00;99.90
22852;DHT22;11592;45.460;9.240;2023-06-05T16:02:24;28.00;99.90
22852;DHT22;11592;45.460;9.240;2023-06-05T16:04:52;27.90;99.90
22852;DHT22;11592;45.460;9.240;2023-06-05T16:07:18;27.90;99.90
22852;DHT22;11592;45.460;9.240;2023-06-05T16:09:45;27.80;99.90
22852;DHT22;11592;45.460;9.240;2023-06-05T16:12:12;27.50;99.90
22852;DHT22;11592;45.460;9.240;2023-06-05T16:14:39;27.40;99.90
22852;DHT22;11592;45.460;9.240;2023-06-05T16:17:06;27.00;99.90
22852;DHT22;11592;45.460;9.240;2023-06-05T16:19:33;26.70;99.90
22852;DHT22;11592;45.460;9.240;2023-06-05T16:22:00;26.40;99.90